Time;durP1;ratioP1;P1;durP2;ratioP2;P2;SDS_P1;SDS_P2;PMS_P1;PMS_P2;Temp;Humidity;BMP_temperature;BMP_pressure;BME280_temperature;BME280_humidity;BME280_pressure;Samples;Min_cycle;Max_cycle;Signal;HPM_P1;HPM_P2
2022/06/25 00:01:22;;;;;;;;;18.50;18.50;;;;;;;;4980085;28;8756;-67
2022/06/25 00:03:49;;;;;;;;;19.00;15.25;;;;;;;;4979969;28;8875;-68
2022/06/25 00:06:16;;;;;;;;;18.25;17.00;;;;;;;;4979500;28;8775;-68
2022/06/25 00:08:44;;;;;;;;;20.75;16.75;;;;;;;;4962033;28;8894;-67
2022/06/25 00:13:58;;;;;;;;;23.50;15.75;;;;;;;;4948995;28;8776;-68
2022/06/25 00:16:25;;;;;;;;;21.25;19.00;;;;;;;;4979045;28;8776;-67
2022/06/25 00:18:51;;;;;;;;;29.50;23.25;;;;;;;;4962034;28;8791;-68
2022/06/25 00:21:18;;;;;;;;;19.50;16.25;;;;;;;;4978989;28;8787;-68
2022/06/25 00:23:44;;;;;;;;;21.75;19.00;;;;;;;;4979092;28;8798;-68
2022/06/25 00:26:11;;;;;;;;;22.00;17.25;;;;;;;;4979222;28;8795;-68
2022/06/25 00:28:38;;;;;;;;;16.50;16.50;;;;;;;;4978984;28;8823;-67
2022/06/25 00:31:04;;;;;;;;;18.80;18.80;;;;;;;;4979742;28;8780;-68
2022/06/25 00:33:31;;;;;;;;;11.75;11.75;;;;;;;;4978911;28;8802;-68
2022/06/25 00:35:58;;;;;;;;;22.75;20.25;;;;;;;;4978803;28;8787;-67
2022/06/25 00:38:25;;;;;;;;;20.75;19.00;;;;;;;;4978724;28;8791;-68
2022/06/25 00:40:52;;;;;;;;;26.25;21.25;;;;;;;;4979075;28;8768;-68
2022/06/25 00:43:19;;;;;;;;;23.00;21.75;;;;;;;;4978866;28;8886;-67
2022/06/25 00:45:46;;;;;;;;;23.25;21.00;;;;;;;;4961445;28;8791;-68
2022/06/25 00:48:12;;;;;;;;;18.80;15.20;;;;;;;;4978788;28;8846;-68
2022/06/25 00:50:39;;;;;;;;;20.80;17.40;;;;;;;;4978698;28;8807;-68
2022/06/25 00:53:06;;;;;;;;;16.80;15.60;;;;;;;;4978814;28;8752;-68
2022/06/25 00:55:32;;;;;;;;;23.20;18.80;;;;;;;;4978270;28;8759;-68
2022/06/25 00:58:00;;;;;;;;;16.40;13.80;;;;;;;;4979379;28;8818;-68
2022/06/25 01:00:27;;;;;;;;;12.60;11.60;;;;;;;;4978276;28;8822;-67
2022/06/25 01:02:53;;;;;;;;;19.50;17.00;;;;;;;;4978506;28;8755;-68
2022/06/25 01:05:20;;;;;;;;;18.40;14.80;;;;;;;;4978516;28;8819;-68
2022/06/25 01:07:47;;;;;;;;;18.20;14.00;;;;;;;;4978483;28;8858;-68
2022/06/25 01:10:14;;;;;;;;;16.60;15.00;;;;;;;;4979178;28;8784;-68
2022/06/25 01:12:41;;;;;;;;;14.40;13.60;;;;;;;;4978005;28;8784;-68
2022/06/25 01:15:09;;;;;;;;;20.00;15.80;;;;;;;;4978532;28;8760;-68
2022/06/25 01:17:36;;;;;;;;;19.40;15.20;;;;;;;;4960893;28;8775;-68
2022/06/25 01:20:06;;;;;;;;;16.40;14.80;;;;;;;;4978003;28;8788;-68
2022/06/25 01:22:32;;;;;;;;;17.80;15.40;;;;;;;;4978243;28;8760;-68
2022/06/25 01:25:00;;;;;;;;;16.40;16.40;;;;;;;;4978785;28;9464;-68
2022/06/25 01:27:27;;;;;;;;;11.60;11.00;;;;;;;;4960574;28;9500;-67
2022/06/25 01:29:53;;;;;;;;;13.60;12.00;;;;;;;;4977921;28;8903;-68
2022/06/25 01:32:20;;;;;;;;;18.40;13.80;;;;;;;;4977880;28;8787;-67
2022/06/25 01:34:46;;;;;;;;;13.40;11.00;;;;;;;;4978503;28;8776;-68
2022/06/25 01:37:13;;;;;;;;;13.40;11.40;;;;;;;;4978784;28;8808;-68
2022/06/25 01:39:40;;;;;;;;;12.40;11.80;;;;;;;;4978262;28;8787;-68
2022/06/25 01:42:58;;;;;;;;;15.40;12.40;;;;;;;;4977859;28;8801;-68
2022/06/25 01:44:53;;;;;;;;;10.00;6.60;;;;;;;;4978036;28;8790;-68
2022/06/25 01:47:19;;;;;;;;;13.80;12.00;;;;;;;;4960021;28;8827;-67
2022/06/25 01:49:46;;;;;;;;;13.40;9.80;;;;;;;;4978222;28;8872;-68
2022/06/25 01:52:16;;;;;;;;;11.40;11.40;;;;;;;;4978896;28;8822;-68
2022/06/25 01:54:42;;;;;;;;;12.40;9.80;;;;;;;;4978183;28;8775;-68
2022/06/25 01:57:09;;;;;;;;;12.20;11.20;;;;;;;;4978014;28;8787;-68
2022/06/25 01:59:35;;;;;;;;;13.40;12.00;;;;;;;;4960441;28;8862;-68
2022/06/25 02:02:02;;;;;;;;;10.80;10.60;;;;;;;;4977870;28;8809;-68
2022/06/25 02:04:29;;;;;;;;;13.00;10.40;;;;;;;;4977753;28;8767;-68
2022/06/25 02:06:55;;;;;;;;;14.20;12.00;;;;;;;;4978786;28;8728;-68
2022/06/25 02:09:22;;;;;;;;;9.60;9.60;;;;;;;;4977730;28;9582;-68
2022/06/25 02:11:49;;;;;;;;;10.60;8.20;;;;;;;;4977884;28;8780;-68
2022/06/25 02:14:15;;;;;;;;;12.40;9.80;;;;;;;;4977982;28;8803;-69
2022/06/25 02:16:42;;;;;;;;;13.00;10.20;;;;;;;;4977359;28;8890;-68
2022/06/25 02:19:08;;;;;;;;;9.00;9.00;;;;;;;;4978565;28;8786;-68
2022/06/25 02:21:36;;;;;;;;;10.00;8.40;;;;;;;;4977487;28;8854;-68
2022/06/25 02:24:02;;;;;;;;;11.60;9.60;;;;;;;;4978074;28;8890;-69
2022/06/25 02:26:29;;;;;;;;;12.20;10.00;;;;;;;;4977452;28;9263;-68
2022/06/25 02:28:56;;;;;;;;;11.00;10.00;;;;;;;;4977563;28;8767;-69
2022/06/25 02:31:22;;;;;;;;;8.60;8.00;;;;;;;;4976545;28;8779;-67
2022/06/25 02:33:49;;;;;;;;;9.60;8.60;;;;;;;;4977622;28;8787;-68
2022/06/25 02:36:15;;;;;;;;;11.40;10.40;;;;;;;;4977818;28;8780;-68
2022/06/25 02:38:42;;;;;;;;;10.60;10.20;;;;;;;;4960216;28;8767;-68
2022/06/25 02:41:09;;;;;;;;;10.40;7.60;;;;;;;;4979086;28;8783;-69
2022/06/25 02:43:35;;;;;;;;;12.60;9.60;;;;;;;;4971125;28;8921;-68
2022/06/25 02:46:02;;;;;;;;;10.80;10.80;;;;;;;;4980664;28;8783;-69
2022/06/25 02:48:29;;;;;;;;;5.20;2.20;;;;;;;;4980673;28;8925;-68
2022/06/25 02:50:55;;;;;;;;;10.00;8.80;;;;;;;;4981115;28;8791;-69
2022/06/25 02:53:22;;;;;;;;;9.80;8.40;;;;;;;;4980893;28;8795;-68
2022/06/25 02:58:55;;;;;;;;;9.20;8.40;;;;;;;;4980410;28;8752;-68
2022/06/25 03:01:22;;;;;;;;;10.80;9.40;;;;;;;;4981379;28;8814;-68
2022/06/25 03:03:48;;;;;;;;;8.40;8.40;;;;;;;;4980910;28;8829;-69
2022/06/25 03:06:15;;;;;;;;;10.80;10.80;;;;;;;;4980807;28;8776;-69
2022/06/25 03:08:42;;;;;;;;;9.80;8.80;;;;;;;;4980613;28;8811;-68
2022/06/25 03:11:08;;;;;;;;;9.20;9.00;;;;;;;;4980501;28;8891;-68
2022/06/25 03:13:36;;;;;;;;;8.20;7.80;;;;;;;;4979934;28;8763;-68
2022/06/25 03:16:04;;;;;;;;;5.00;4.40;;;;;;;;4981108;28;8803;-69
2022/06/25 03:18:30;;;;;;;;;10.00;7.40;;;;;;;;4980643;28;8799;-68
2022/06/25 03:20:57;;;;;;;;;7.40;6.00;;;;;;;;4980477;28;8788;-68
2022/06/25 03:23:24;;;;;;;;;7.20;5.60;;;;;;;;4980366;28;8779;-68
2022/06/25 03:25:50;;;;;;;;;8.60;6.40;;;;;;;;4963248;28;8786;-68
2022/06/25 03:28:17;;;;;;;;;9.40;6.80;;;;;;;;4980898;28;8814;-68
2022/06/25 03:30:45;;;;;;;;;9.60;8.20;;;;;;;;4962746;28;8858;-69
2022/06/25 03:33:12;;;;;;;;;8.40;7.20;;;;;;;;4963355;28;8799;-69
2022/06/25 03:35:38;;;;;;;;;10.00;8.00;;;;;;;;4962782;28;8791;-68
2022/06/25 03:38:05;;;;;;;;;8.20;6.20;;;;;;;;4980510;28;8819;-69
2022/06/25 03:40:32;;;;;;;;;11.00;9.00;;;;;;;;4980094;28;8755;-71
2022/06/25 03:42:59;;;;;;;;;6.40;6.40;;;;;;;;4980578;28;8783;-68
2022/06/25 03:45:26;;;;;;;;;8.80;7.00;;;;;;;;4979659;28;8825;-73
2022/06/25 03:47:52;;;;;;;;;8.20;7.00;;;;;;;;4979621;28;8850;-66
2022/06/25 03:50:22;;;;;;;;;6.40;6.20;;;;;;;;4979430;28;8780;-71
2022/06/25 03:52:49;;;;;;;;;6.60;6.00;;;;;;;;4980181;28;8787;-72
2022/06/25 03:55:16;;;;;;;;;7.00;7.00;;;;;;;;4979564;28;8881;-67
2022/06/25 03:57:42;;;;;;;;;8.00;7.00;;;;;;;;4979881;28;8775;-73
2022/06/25 04:00:09;;;;;;;;;9.20;6.20;;;;;;;;4979698;28;8772;-67
2022/06/25 04:02:36;;;;;;;;;7.60;7.00;;;;;;;;4978221;28;8763;-72
2022/06/25 04:05:03;;;;;;;;;7.80;6.80;;;;;;;;4979766;28;8810;-70
2022/06/25 04:07:49;;;;;;;;;8.40;7.00;;;;;;;;4961936;28;8814;-68
2022/06/25 04:10:16;;;;;;;;;5.80;5.60;;;;;;;;4980009;28;8771;-75
2022/06/25 04:12:42;;;;;;;;;6.80;5.60;;;;;;;;4962394;28;8791;-68
2022/06/25 04:15:10;;;;;;;;;7.00;5.80;;;;;;;;4979474;28;8803;-72
2022/06/25 04:17:36;;;;;;;;;8.00;6.00;;;;;;;;4978948;28;8882;-70
2022/06/25 04:20:03;;;;;;;;;5.00;5.00;;;;;;;;4961881;28;8788;-73
2022/06/25 04:22:30;;;;;;;;;8.40;7.00;;;;;;;;4979164;28;8972;-69
2022/06/25 04:24:56;;;;;;;;;8.40;6.60;;;;;;;;4962353;28;9475;-72
2022/06/25 04:30:08;;;;;;;;;7.40;5.60;;;;;;;;4979170;28;8791;-69
2022/06/25 04:32:34;;;;;;;;;6.40;6.40;;;;;;;;4977765;28;8771;-72
2022/06/25 04:35:01;;;;;;;;;6.20;6.00;;;;;;;;4979137;28;9581;-75
2022/06/25 04:37:28;;;;;;;;;5.80;5.00;;;;;;;;4978714;28;8747;-69
2022/06/25 04:39:54;;;;;;;;;7.40;6.00;;;;;;;;4962417;28;8764;-67
2022/06/25 04:42:21;;;;;;;;;10.20;9.00;;;;;;;;4978489;28;8869;-75
2022/06/25 04:44:47;;;;;;;;;8.60;6.80;;;;;;;;4978894;28;8817;-64
2022/06/25 04:47:14;;;;;;;;;8.00;6.00;;;;;;;;4978644;28;8767;-62
2022/06/25 04:49:41;;;;;;;;;6.80;5.00;;;;;;;;4970099;28;8819;-72
2022/06/25 04:52:08;;;;;;;;;4.80;4.80;;;;;;;;4978353;28;8776;-74
2022/06/25 04:54:34;;;;;;;;;8.00;6.40;;;;;;;;4978544;28;8792;-59
2022/06/25 04:57:01;;;;;;;;;4.20;4.20;;;;;;;;4978524;28;8799;-73
2022/06/25 04:59:28;;;;;;;;;4.20;4.20;;;;;;;;4978689;28;8901;-60
2022/06/25 05:01:55;;;;;;;;;6.20;6.20;;;;;;;;4978792;28;8771;-69
2022/06/25 05:04:21;;;;;;;;;6.40;6.20;;;;;;;;4978730;28;8808;-76
2022/06/25 05:06:48;;;;;;;;;4.00;4.00;;;;;;;;4961279;28;8778;-76
2022/06/25 05:09:14;;;;;;;;;4.60;4.00;;;;;;;;4978530;28;8854;-77
2022/06/25 05:11:42;;;;;;;;;4.00;4.00;;;;;;;;4951796;28;8927;-74
2022/06/25 05:14:09;;;;;;;;;3.40;3.00;;;;;;;;4977384;28;8787;-64
2022/06/25 05:16:35;;;;;;;;;3.80;3.80;;;;;;;;4955417;28;8811;-72
2022/06/25 05:19:02;;;;;;;;;2.00;2.00;;;;;;;;4978989;28;8921;-75
2022/06/25 05:21:28;;;;;;;;;4.00;4.00;;;;;;;;4977997;28;8791;-72
2022/06/25 05:23:55;;;;;;;;;5.00;4.60;;;;;;;;4978492;28;8816;-73
2022/06/25 05:26:22;;;;;;;;;2.20;2.20;;;;;;;;4978381;28;8791;-68
2022/06/25 05:28:48;;;;;;;;;4.00;4.00;;;;;;;;4978667;28;8862;-71
2022/06/25 05:31:15;;;;;;;;;3.40;3.40;;;;;;;;4978822;28;8780;-73
2022/06/25 05:33:42;;;;;;;;;3.40;2.40;;;;;;;;4978141;28;8775;-73
2022/06/25 05:36:08;;;;;;;;;4.60;3.00;;;;;;;;4978168;28;8747;-72
2022/06/25 05:38:35;;;;;;;;;2.80;2.80;;;;;;;;4977901;28;8760;-72
2022/06/25 05:41:07;;;;;;;;;6.60;4.00;;;;;;;;4978266;28;8798;-72
2022/06/25 05:43:37;;;;;;;;;4.40;4.00;;;;;;;;4942818;28;8955;-72
2022/06/25 05:46:04;;;;;;;;;6.00;4.60;;;;;;;;4953902;28;8796;-75
2022/06/25 05:48:30;;;;;;;;;4.80;4.20;;;;;;;;4939341;28;8805;-72
2022/06/25 05:50:57;;;;;;;;;3.40;3.20;;;;;;;;4939717;28;8793;-72
2022/06/25 05:53:24;;;;;;;;;4.00;4.00;;;;;;;;4939444;28;8798;-71
2022/06/25 05:55:51;;;;;;;;;3.20;1.80;;;;;;;;4939924;28;8769;-72
2022/06/25 05:58:18;;;;;;;;;3.00;3.00;;;;;;;;4955000;28;8777;-74
2022/06/25 06:00:45;;;;;;;;;2.20;2.20;;;;;;;;4939597;28;8785;-75
2022/06/25 06:03:12;;;;;;;;;3.40;3.00;;;;;;;;4954595;28;10009;-69
2022/06/25 06:05:41;;;;;;;;;3.00;3.00;;;;;;;;4939388;28;8896;-74
2022/06/25 06:08:08;;;;;;;;;3.00;3.00;;;;;;;;4939693;28;8920;-76
2022/06/25 06:10:35;;;;;;;;;2.80;1.20;;;;;;;;4954058;28;8798;-72
2022/06/25 06:13:01;;;;;;;;;3.20;2.60;;;;;;;;4939993;29;8817;-75
2022/06/25 06:15:28;;;;;;;;;3.00;3.00;;;;;;;;4954373;28;8892;-72
2022/06/25 06:17:54;;;;;;;;;4.00;4.00;;;;;;;;4943191;28;8804;-72
2022/06/25 06:20:21;;;;;;;;;2.60;1.20;;;;;;;;4942933;28;8895;-74
2022/06/25 06:22:48;;;;;;;;;2.00;2.00;;;;;;;;4957692;28;8774;-73
2022/06/25 06:25:14;;;;;;;;;3.00;3.00;;;;;;;;4942423;29;8804;-72
2022/06/25 06:27:41;;;;;;;;;2.00;2.00;;;;;;;;4942617;28;8808;-76
2022/06/25 06:30:10;;;;;;;;;3.00;3.00;;;;;;;;4942986;28;8773;-75
2022/06/25 06:32:37;;;;;;;;;2.80;2.80;;;;;;;;4942619;28;8801;-60
2022/06/25 06:35:03;;;;;;;;;3.60;2.80;;;;;;;;4942834;28;8819;-69
2022/06/25 06:37:30;;;;;;;;;1.40;1.00;;;;;;;;4942617;28;8765;-60
2022/06/25 06:39:57;;;;;;;;;2.00;1.80;;;;;;;;4943380;29;8774;-77
2022/06/25 06:42:24;;;;;;;;;2.00;1.60;;;;;;;;4951910;28;8821;-65
2022/06/25 06:44:50;;;;;;;;;1.00;1.00;;;;;;;;4981281;28;8767;-76
2022/06/25 06:47:17;;;;;;;;;1.00;1.00;;;;;;;;4981063;28;8763;-74
2022/06/25 06:49:44;;;;;;;;;2.60;2.20;;;;;;;;4963643;28;9623;-65
2022/06/25 06:52:10;;;;;;;;;2.60;2.60;;;;;;;;4981773;28;8747;-60
2022/06/25 06:54:37;;;;;;;;;1.40;1.40;;;;;;;;4963221;28;8796;-75
2022/06/25 06:57:04;;;;;;;;;2.40;2.20;;;;;;;;4980774;28;8962;-74
2022/06/25 06:59:30;;;;;;;;;3.00;3.00;;;;;;;;4980891;28;8787;-67
2022/06/25 07:01:58;;;;;;;;;2.00;2.00;;;;;;;;4980721;28;8748;-75
2022/06/25 07:04:24;;;;;;;;;4.60;2.60;;;;;;;;4980494;28;8803;-66
2022/06/25 07:06:51;;;;;;;;;2.00;2.00;;;;;;;;4981495;28;8783;-72
2022/06/25 07:09:18;;;;;;;;;2.40;2.40;;;;;;;;4980433;28;8803;-71
2022/06/25 07:11:44;;;;;;;;;3.80;2.00;;;;;;;;4980666;28;8783;-75
2022/06/25 07:14:13;;;;;;;;;3.60;3.60;;;;;;;;4980789;28;9498;-75
2022/06/25 07:16:40;;;;;;;;;1.00;1.00;;;;;;;;4980606;28;8744;-68
2022/06/25 07:19:06;;;;;;;;;1.00;1.00;;;;;;;;4981347;28;8767;-75
2022/06/25 07:21:33;;;;;;;;;2.00;2.00;;;;;;;;4969118;28;8805;-72
2022/06/25 07:24:00;;;;;;;;;2.60;1.60;;;;;;;;4980555;28;8768;-76
2022/06/25 07:26:27;;;;;;;;;3.00;1.00;;;;;;;;4979696;28;8957;-73
2022/06/25 07:28:53;;;;;;;;;3.00;2.00;;;;;;;;4980768;28;8775;-72
2022/06/25 07:31:20;;;;;;;;;1.00;1.00;;;;;;;;4959884;28;8750;-75
2022/06/25 07:33:47;;;;;;;;;2.00;1.40;;;;;;;;4960813;28;8856;-72
2022/06/25 07:36:14;;;;;;;;;2.40;2.00;;;;;;;;4976015;28;8789;-72
2022/06/25 07:38:40;;;;;;;;;4.00;1.00;;;;;;;;4960721;28;8777;-74
2022/06/25 07:41:07;;;;;;;;;0.60;0.60;;;;;;;;4960877;28;8840;-72
2022/06/25 07:43:34;;;;;;;;;1.80;1.80;;;;;;;;4960491;28;8840;-73
2022/06/25 07:46:00;;;;;;;;;3.00;2.00;;;;;;;;4965353;28;8791;-76
2022/06/25 07:48:27;;;;;;;;;3.00;2.00;;;;;;;;4979445;28;8818;-67
2022/06/25 07:53:38;;;;;;;;;2.60;2.00;;;;;;;;4978887;28;8799;-75
2022/06/25 07:56:06;;;;;;;;;1.60;1.40;;;;;;;;4979896;28;8807;-71
2022/06/25 07:58:34;;;;;;;;;1.60;1.00;;;;;;;;4962390;28;8779;-75
2022/06/25 08:01:00;;;;;;;;;1.60;1.60;;;;;;;;4980498;28;8779;-71
2022/06/25 08:03:27;;;;;;;;;3.00;1.20;;;;;;;;4979455;28;8791;-75
2022/06/25 08:05:54;;;;;;;;;2.00;2.00;;;;;;;;4979548;28;8772;-75
2022/06/25 08:08:20;;;;;;;;;2.00;2.00;;;;;;;;4979483;28;8845;-72
2022/06/25 08:10:47;;;;;;;;;3.20;2.00;;;;;;;;4962317;28;8849;-75
2022/06/25 08:13:14;;;;;;;;;1.60;1.60;;;;;;;;4962695;28;8790;-75
2022/06/25 08:15:41;;;;;;;;;2.00;2.00;;;;;;;;4979188;28;8775;-65
2022/06/25 08:18:07;;;;;;;;;2.00;2.00;;;;;;;;4962106;28;8862;-73
2022/06/25 08:20:34;;;;;;;;;1.80;1.40;;;;;;;;4978400;28;8814;-75
2022/06/25 08:23:00;;;;;;;;;2.00;2.00;;;;;;;;4979716;28;8764;-72
2022/06/25 08:25:27;;;;;;;;;2.00;2.00;;;;;;;;4978691;28;8768;-59
2022/06/25 08:27:54;;;;;;;;;3.40;2.80;;;;;;;;4979889;28;8780;-74
2022/06/25 08:30:21;;;;;;;;;3.40;3.40;;;;;;;;4978862;28;9930;-72
2022/06/25 08:32:48;;;;;;;;;3.80;2.40;;;;;;;;4978859;28;9436;-69
2022/06/25 08:35:14;;;;;;;;;3.80;2.40;;;;;;;;4979417;28;8803;-75
2022/06/25 08:37:44;;;;;;;;;4.40;3.00;;;;;;;;4961646;28;8763;-68
2022/06/25 08:40:11;;;;;;;;;2.80;2.80;;;;;;;;4979407;28;8755;-72
2022/06/25 08:42:38;;;;;;;;;7.00;5.40;;;;;;;;4954694;28;8833;-74
2022/06/25 08:45:05;;;;;;;;;6.00;5.00;;;;;;;;4954887;29;8812;-66
2022/06/25 08:47:31;;;;;;;;;4.40;4.40;;;;;;;;4940290;29;8879;-73
2022/06/25 08:49:59;;;;;;;;;5.20;4.20;;;;;;;;4939697;29;10013;-76
2022/06/25 08:52:27;;;;;;;;;4.00;4.00;;;;;;;;4940587;28;8781;-71
2022/06/25 08:54:54;;;;;;;;;6.00;4.40;;;;;;;;4956162;28;8792;-73
2022/06/25 08:57:20;;;;;;;;;8.00;7.60;;;;;;;;4954805;29;8785;-66
2022/06/25 08:59:47;;;;;;;;;15.75;12.50;;;;;;;;4955016;29;8896;-75
2022/06/25 09:02:16;;;;;;;;;10.25;7.25;;;;;;;;4954658;29;8799;-76
2022/06/25 09:04:43;;;;;;;;;8.40;8.00;;;;;;;;4938916;29;8785;-76
2022/06/25 09:07:13;;;;;;;;;9.20;8.40;;;;;;;;4940839;29;8891;-72
2022/06/25 09:09:39;;;;;;;;;7.80;7.00;;;;;;;;4940099;29;8797;-75
2022/06/25 09:12:08;;;;;;;;;9.20;8.20;;;;;;;;4940036;29;8924;-75
2022/06/25 09:14:35;;;;;;;;;12.80;9.00;;;;;;;;4939666;28;8890;-71
2022/06/25 09:17:06;;;;;;;;;8.60;6.20;;;;;;;;4940045;29;8792;-71
2022/06/25 09:19:33;;;;;;;;;8.20;6.40;;;;;;;;4939680;28;8789;-76
2022/06/25 09:22:00;;;;;;;;;11.00;7.20;;;;;;;;4940415;29;9546;-68
2022/06/25 09:24:39;;;;;;;;;13.40;11.40;;;;;;;;4939684;28;8793;-76
2022/06/25 09:27:05;;;;;;;;;15.00;13.25;;;;;;;;4938664;29;8788;-76
2022/06/25 09:29:39;;;;;;;;;12.50;12.25;;;;;;;;4939411;29;8900;-67
2022/06/25 09:32:06;;;;;;;;;14.00;12.60;;;;;;;;4939616;29;8785;-76
2022/06/25 09:34:36;;;;;;;;;8.25;8.00;;;;;;;;4938544;28;8789;-76
2022/06/25 09:37:16;;;;;;;;;9.20;9.20;;;;;;;;4940472;29;8857;-67
2022/06/25 09:39:43;;;;;;;;;9.60;9.20;;;;;;;;4939720;28;8808;-77
2022/06/25 09:42:19;;;;;;;;;12.00;10.25;;;;;;;;4948153;28;8797;-76
2022/06/25 09:44:46;;;;;;;;;14.00;12.75;;;;;;;;4961173;28;8803;-64
2022/06/25 09:47:15;;;;;;;;;15.25;14.25;;;;;;;;4960911;28;8845;-71
2022/06/25 09:49:42;;;;;;;;;17.75;15.50;;;;;;;;4977531;28;8831;-76
2022/06/25 09:52:11;;;;;;;;;21.75;17.00;;;;;;;;4982887;28;8770;-60
2022/06/25 09:54:38;;;;;;;;;20.50;20.00;;;;;;;;4981823;28;8889;-75
2022/06/25 09:57:05;;;;;;;;;34.75;25.50;;;;;;;;4981885;28;9456;-71
2022/06/25 09:59:33;;;;;;;;;23.75;20.75;;;;;;;;4981734;28;8802;-60
2022/06/25 10:02:00;;;;;;;;;21.50;19.75;;;;;;;;4981862;28;8760;-71
2022/06/25 10:04:28;;;;;;;;;15.25;15.00;;;;;;;;4964176;28;8772;-75
2022/06/25 10:06:54;;;;;;;;;11.00;11.00;;;;;;;;4982640;28;8756;-61
2022/06/25 10:09:21;;;;;;;;;16.00;12.75;;;;;;;;4964502;28;8807;-60
2022/06/25 10:11:48;;;;;;;;;12.00;10.40;;;;;;;;4981918;28;8767;-75
2022/06/25 10:14:14;;;;;;;;;10.60;9.80;;;;;;;;4981918;28;8775;-76
2022/06/25 10:16:41;;;;;;;;;12.40;10.00;;;;;;;;4981591;28;8764;-66
2022/06/25 10:19:13;;;;;;;;;10.25;9.50;;;;;;;;4964586;28;9514;-77
2022/06/25 10:21:40;;;;;;;;;12.00;10.50;;;;;;;;4980353;28;8779;-77
2022/06/25 10:24:07;;;;;;;;;13.40;10.60;;;;;;;;4980253;28;8893;-63
2022/06/25 10:26:34;;;;;;;;;10.75;9.25;;;;;;;;4964282;28;9104;-66
2022/06/25 10:29:04;;;;;;;;;13.00;11.75;;;;;;;;4980389;28;8800;-76
2022/06/25 10:31:30;;;;;;;;;15.50;12.50;;;;;;;;4981219;28;8783;-63
2022/06/25 10:34:04;;;;;;;;;15.75;14.00;;;;;;;;4965084;28;8772;-77
2022/06/25 10:36:40;;;;;;;;;13.50;12.50;;;;;;;;4963902;28;8799;-75
2022/06/25 10:39:33;;;;;;;;;13.00;11.75;;;;;;;;4964155;28;8794;-67
2022/06/25 10:45:09;;;;;;;;;15.00;12.25;;;;;;;;4981194;28;8759;-74
2022/06/25 10:47:39;;;;;;;;;14.75;13.00;;;;;;;;4980990;28;8744;-69
2022/06/25 10:50:25;;;;;;;;;14.00;13.25;;;;;;;;4981482;28;8787;-75
2022/06/25 10:53:03;;;;;;;;;12.00;10.75;;;;;;;;4981246;28;8747;-75
2022/06/25 10:55:37;;;;;;;;;13.25;11.75;;;;;;;;4981100;28;8740;-71
2022/06/25 10:58:13;;;;;;;;;16.25;15.00;;;;;;;;4980710;28;8775;-72
2022/06/25 11:00:49;;;;;;;;;23.00;20.25;;;;;;;;4980614;28;8791;-77
2022/06/25 11:03:20;;;;;;;;;24.75;23.50;;;;;;;;4963057;28;8766;-73
2022/06/25 11:05:49;;;;;;;;;23.25;19.25;;;;;;;;4963362;28;8788;-67
2022/06/25 11:08:15;;;;;;;;;21.75;19.75;;;;;;;;4970663;28;8819;-77
2022/06/25 11:10:42;;;;;;;;;12.75;11.50;;;;;;;;4979429;28;8833;-75
2022/06/25 11:13:09;;;;;;;;;17.40;14.00;;;;;;;;4981401;28;8938;-77
2022/06/25 11:15:39;;;;;;;;;24.20;18.00;;;;;;;;4962395;28;9444;-64
2022/06/25 11:18:24;;;;;;;;;19.25;16.25;;;;;;;;4980283;28;8803;-69
2022/06/25 11:20:51;;;;;;;;;21.50;18.25;;;;;;;;4980359;28;8775;-74
2022/06/25 11:23:18;;;;;;;;;22.00;17.00;;;;;;;;4980575;28;8767;-72
2022/06/25 11:28:48;;;;;;;;;30.75;25.50;;;;;;;;4978799;28;8788;-73
2022/06/25 11:31:23;;;;;;;;;30.25;28.50;;;;;;;;4979588;28;8978;-71
2022/06/25 11:33:51;;;;;;;;;26.25;26.25;;;;;;;;4963295;28;8783;-73
2022/06/25 11:36:17;;;;;;;;;28.00;24.25;;;;;;;;4980161;28;9369;-69
2022/06/25 11:38:51;;;;;;;;;21.75;15.50;;;;;;;;4980231;28;8787;-71
2022/06/25 11:41:21;;;;;;;;;22.75;18.00;;;;;;;;4962638;28;8873;-75
2022/06/25 11:43:48;;;;;;;;;20.00;19.25;;;;;;;;4979397;28;9150;-77
2022/06/25 11:46:16;;;;;;;;;16.00;13.25;;;;;;;;4980627;28;9421;-75
2022/06/25 11:48:42;;;;;;;;;20.75;15.50;;;;;;;;4979735;28;9488;-76
2022/06/25 11:51:09;;;;;;;;;20.25;19.25;;;;;;;;4979973;28;8806;-67
2022/06/25 11:53:36;;;;;;;;;15.75;13.25;;;;;;;;4979763;28;8902;-76
2022/06/25 11:56:03;;;;;;;;;12.40;12.40;;;;;;;;4979908;28;8795;-62
2022/06/25 11:58:31;;;;;;;;;14.40;12.00;;;;;;;;4962308;28;8783;-68
2022/06/25 12:00:58;;;;;;;;;12.60;10.80;;;;;;;;4980364;28;8752;-72
2022/06/25 12:03:25;;;;;;;;;13.25;12.25;;;;;;;;4961978;28;8893;-76
2022/06/25 12:05:52;;;;;;;;;17.60;16.60;;;;;;;;4979784;28;9063;-76
2022/06/25 12:08:20;;;;;;;;;15.75;14.75;;;;;;;;4979181;28;8792;-57
2022/06/25 12:10:48;;;;;;;;;14.25;13.75;;;;;;;;4979706;28;8760;-71
2022/06/25 12:13:15;;;;;;;;;11.60;10.00;;;;;;;;4980370;28;8847;-78
2022/06/25 12:15:42;;;;;;;;;12.80;10.00;;;;;;;;4979253;28;9409;-70
2022/06/25 12:18:08;;;;;;;;;13.00;12.00;;;;;;;;4979469;28;8767;-69
2022/06/25 12:20:35;;;;;;;;;12.20;11.00;;;;;;;;4979532;28;8779;-74
2022/06/25 12:23:02;;;;;;;;;11.75;10.75;;;;;;;;4979735;28;8780;-72
2022/06/25 12:25:30;;;;;;;;;17.00;12.25;;;;;;;;4978213;28;8756;-74
2022/06/25 12:27:56;;;;;;;;;11.00;11.00;;;;;;;;4979548;28;8796;-75
2022/06/25 12:30:27;;;;;;;;;14.50;11.75;;;;;;;;4962015;28;8795;-67
2022/06/25 12:32:56;;;;;;;;;15.00;10.75;;;;;;;;4979282;28;8786;-75
2022/06/25 12:35:24;;;;;;;;;11.00;8.50;;;;;;;;4979330;28;8840;-59
2022/06/25 12:38:03;;;;;;;;;13.00;10.80;;;;;;;;4962126;28;8783;-75
2022/06/25 12:40:30;;;;;;;;;10.50;10.00;;;;;;;;4979394;28;8771;-71
2022/06/25 12:42:57;;;;;;;;;12.00;10.50;;;;;;;;4962731;28;8822;-68
2022/06/25 12:45:24;;;;;;;;;13.50;11.00;;;;;;;;4979051;28;8897;-72
2022/06/25 12:47:52;;;;;;;;;16.40;12.80;;;;;;;;4961753;28;8804;-75
2022/06/25 12:50:31;;;;;;;;;10.75;9.25;;;;;;;;4978927;28;8791;-70
2022/06/25 12:53:07;;;;;;;;;15.40;10.00;;;;;;;;4961470;28;8764;-75
2022/06/25 12:55:34;;;;;;;;;13.75;12.00;;;;;;;;4978998;28;8775;-77
2022/06/25 12:58:10;;;;;;;;;15.00;14.33;;;;;;;;4979425;28;8755;-67
2022/06/25 13:00:40;;;;;;;;;12.20;11.20;;;;;;;;4978430;28;8787;-76
2022/06/25 13:03:06;;;;;;;;;15.80;13.40;;;;;;;;4978523;28;8795;-49
2022/06/25 13:05:33;;;;;;;;;13.00;11.60;;;;;;;;4978404;28;8779;-56
2022/06/25 13:08:01;;;;;;;;;11.60;10.80;;;;;;;;4978458;28;8799;-74
2022/06/25 13:10:28;;;;;;;;;12.20;10.40;;;;;;;;4978482;28;8790;-61
2022/06/25 13:12:54;;;;;;;;;15.60;12.80;;;;;;;;4962273;28;8802;-58
2022/06/25 13:15:21;;;;;;;;;13.40;12.60;;;;;;;;4951324;28;8833;-73
2022/06/25 13:17:48;;;;;;;;;16.00;14.00;;;;;;;;4978209;28;9436;-70
2022/06/25 13:20:15;;;;;;;;;15.60;13.00;;;;;;;;4978730;28;8775;-75
2022/06/25 13:22:42;;;;;;;;;22.75;20.00;;;;;;;;4979126;28;8752;-77
2022/06/25 13:25:12;;;;;;;;;22.25;19.25;;;;;;;;4979078;28;8728;-59
2022/06/25 13:27:42;;;;;;;;;34.75;24.00;;;;;;;;4977755;28;8803;-64
2022/06/25 13:30:09;;;;;;;;;26.25;23.25;;;;;;;;4977309;28;8794;-76
2022/06/25 13:32:35;;;;;;;;;26.00;22.25;;;;;;;;4977780;28;9420;-76
2022/06/25 13:35:06;;;;;;;;;21.25;18.00;;;;;;;;4978514;28;8798;-77
2022/06/25 13:37:36;;;;;;;;;19.75;18.75;;;;;;;;4961029;28;8748;-74
2022/06/25 13:40:03;;;;;;;;;23.50;21.25;;;;;;;;4961765;28;8773;-60
2022/06/25 13:42:29;;;;;;;;;24.50;19.25;;;;;;;;4960301;28;8826;-77
2022/06/25 13:44:59;;;;;;;;;21.50;19.75;;;;;;;;4961011;28;8774;-76
2022/06/25 13:47:26;;;;;;;;;22.75;18.50;;;;;;;;4948916;28;8807;-73
2022/06/25 13:49:52;;;;;;;;;17.75;16.25;;;;;;;;4977775;28;8793;-63
2022/06/25 13:52:19;;;;;;;;;14.00;11.50;;;;;;;;4978508;28;8789;-65
2022/06/25 13:54:46;;;;;;;;;12.50;12.50;;;;;;;;4977904;28;8792;-78
2022/06/25 13:57:13;;;;;;;;;15.75;14.25;;;;;;;;4978262;28;9436;-77
2022/06/25 13:59:39;;;;;;;;;15.50;13.75;;;;;;;;4960667;28;8791;-73
2022/06/25 14:02:06;;;;;;;;;13.20;11.20;;;;;;;;4977906;28;8779;-66
2022/06/25 14:04:33;;;;;;;;;12.20;11.60;;;;;;;;4977845;28;8740;-69
2022/06/25 14:07:00;;;;;;;;;10.40;9.00;;;;;;;;4961755;28;8886;-77
2022/06/25 14:09:26;;;;;;;;;10.60;8.20;;;;;;;;4977793;28;8885;-74
2022/06/25 14:11:54;;;;;;;;;7.40;5.80;;;;;;;;4978074;28;8842;-70
2022/06/25 14:14:20;;;;;;;;;6.00;5.20;;;;;;;;4969313;28;9527;-65
2022/06/25 14:16:47;;;;;;;;;7.00;5.20;;;;;;;;4977665;28;8759;-69
2022/06/25 14:19:13;;;;;;;;;7.80;6.20;;;;;;;;4978048;28;9452;-73
2022/06/25 14:21:40;;;;;;;;;5.00;4.20;;;;;;;;4977661;28;8775;-62
2022/06/25 14:24:07;;;;;;;;;7.00;6.20;;;;;;;;4977824;28;8818;-62
2022/06/25 14:26:33;;;;;;;;;5.20;3.00;;;;;;;;4977773;28;8803;-73
2022/06/25 14:29:00;;;;;;;;;6.00;4.00;;;;;;;;4977934;28;8772;-71
2022/06/25 14:31:27;;;;;;;;;2.80;2.00;;;;;;;;4977410;28;8788;-72
2022/06/25 14:33:54;;;;;;;;;4.00;3.60;;;;;;;;4978424;28;8762;-76
2022/06/25 14:44:38;;;;;;;;;4.00;3.00;;;;;;;;4980964;28;8807;-77
2022/06/25 14:47:05;;;;;;;;;4.00;3.80;;;;;;;;4981052;28;9428;-65
2022/06/25 14:49:31;;;;;;;;;3.40;2.80;;;;;;;;4979843;28;8819;-72
2022/06/25 14:51:58;;;;;;;;;3.60;2.80;;;;;;;;4981841;28;8747;-63
2022/06/25 14:54:24;;;;;;;;;3.00;3.00;;;;;;;;4979601;28;8838;-59
2022/06/25 14:56:51;;;;;;;;;4.40;4.00;;;;;;;;4980931;28;8815;-76
2022/06/25 14:59:18;;;;;;;;;4.40;3.00;;;;;;;;4963667;28;9243;-74
2022/06/25 15:01:44;;;;;;;;;5.20;4.20;;;;;;;;4980725;28;9563;-67
2022/06/25 15:04:11;;;;;;;;;2.40;2.40;;;;;;;;4981595;28;8764;-65
2022/06/25 15:06:38;;;;;;;;;1.40;1.40;;;;;;;;4980271;28;8897;-77
2022/06/25 15:09:04;;;;;;;;;2.60;2.60;;;;;;;;4980424;28;9535;-66
2022/06/25 15:11:31;;;;;;;;;3.40;3.40;;;;;;;;4980245;28;9453;-74